createdAt,value
2022-09-24T00:01:39.409Z,4.90
2022-09-24T00:04:12.689Z,4.90
2022-09-24T00:06:43.254Z,4.80
2022-09-24T00:09:12.068Z,4.90
2022-09-24T00:11:40.106Z,4.80
2022-09-24T00:14:08.081Z,4.80
2022-09-24T00:16:36.037Z,4.70
2022-09-24T00:19:04.162Z,4.70
2022-09-24T00:21:35.913Z,4.70
2022-09-24T00:24:33.788Z,4.70
2022-09-24T00:27:02.514Z,4.70
2022-09-24T00:29:36.022Z,4.70
2022-09-24T00:32:04.929Z,4.70
2022-09-24T00:34:32.460Z,4.60
2022-09-24T00:37:00.185Z,4.50
2022-09-24T00:39:27.685Z,4.50
2022-09-24T00:41:55.974Z,4.40
2022-09-24T00:44:54.773Z,4.30
2022-09-24T00:47:30.009Z,4.30
2022-09-24T00:50:08.428Z,4.20
2022-09-24T00:52:41.356Z,4.30
2022-09-24T00:55:09.983Z,4.40
2022-09-24T00:57:39.078Z,4.40
2022-09-24T01:00:08.377Z,4.30
2022-09-24T01:02:37.986Z,4.30
2022-09-24T01:05:05.720Z,4.20
2022-09-24T01:07:33.210Z,4.20
2022-09-24T01:10:00.659Z,4.10
2022-09-24T01:12:39.231Z,4.10
2022-09-24T01:15:21.478Z,4.10
2022-09-24T01:17:53.339Z,4.00
2022-09-24T01:20:38.742Z,4.00
2022-09-24T01:23:33.797Z,4.00
2022-09-24T01:26:20.253Z,3.90
2022-09-24T01:29:24.844Z,3.90
2022-09-24T01:32:07.639Z,3.90
2022-09-24T01:34:42.900Z,3.90
2022-09-24T01:37:14.384Z,3.90
2022-09-24T01:39:45.623Z,3.80
2022-09-24T01:42:14.705Z,3.80
2022-09-24T01:44:44.753Z,3.80
2022-09-24T01:47:19.195Z,3.80
2022-09-24T01:49:47.237Z,3.80
2022-09-24T01:52:19.104Z,3.70
2022-09-24T01:54:52.038Z,3.70
2022-09-24T01:57:27.141Z,3.70
2022-09-24T02:00:05.993Z,3.60
2022-09-24T02:02:45.703Z,3.60
2022-09-24T02:05:33.237Z,3.60
2022-09-24T02:08:16.491Z,3.60
2022-09-24T02:10:55.242Z,3.60
2022-09-24T02:13:28.784Z,3.60
2022-09-24T02:16:00.349Z,3.60
2022-09-24T02:18:33.840Z,3.60
2022-09-24T02:21:06.557Z,3.60
2022-09-24T02:23:37.441Z,3.60
2022-09-24T02:26:05.799Z,3.60
2022-09-24T02:28:34.337Z,3.50
2022-09-24T02:31:08.674Z,3.50
2022-09-24T02:34:07.883Z,3.40
2022-09-24T02:36:36.468Z,3.40
2022-09-24T02:39:04.842Z,3.40
2022-09-24T02:41:32.539Z,3.30
2022-09-24T02:43:59.879Z,3.30
2022-09-24T02:46:27.193Z,3.20
2022-09-24T02:48:55.276Z,3.20
2022-09-24T02:51:26.754Z,3.20
2022-09-24T02:53:54.170Z,3.20
2022-09-24T02:56:21.619Z,3.20
2022-09-24T02:58:48.935Z,3.20
2022-09-24T03:01:16.804Z,3.20
2022-09-24T03:03:44.297Z,3.10
2022-09-24T03:06:13.752Z,3.10
2022-09-24T03:08:42.692Z,3.10
2022-09-24T03:11:15.055Z,3.10
2022-09-24T03:13:43.828Z,3.00
2022-09-24T03:16:11.893Z,3.00
2022-09-24T03:18:39.425Z,3.00
2022-09-24T03:21:13.757Z,3.00
2022-09-24T03:23:41.993Z,3.00
2022-09-24T03:26:09.979Z,2.90
2022-09-24T03:28:37.575Z,2.90
2022-09-24T03:31:05.902Z,3.00
2022-09-24T03:33:44.391Z,3.00
2022-09-24T03:36:23.675Z,3.00
2022-09-24T03:38:54.636Z,3.00
2022-09-24T03:41:22.339Z,2.90
2022-09-24T03:43:49.931Z,2.90
2022-09-24T03:46:17.594Z,2.90
2022-09-24T03:48:47.545Z,2.90
2022-09-24T03:51:20.346Z,2.90
2022-09-24T03:53:48.476Z,2.90
2022-09-24T03:56:16.271Z,2.90
2022-09-24T03:58:47.815Z,2.90
2022-09-24T04:01:19.597Z,2.90
2022-09-24T04:03:47.335Z,3.00
2022-09-24T04:06:15.470Z,2.90
2022-09-24T04:08:42.843Z,3.00
2022-09-24T04:11:10.276Z,3.00
2022-09-24T04:13:37.568Z,3.00
2022-09-24T04:16:05.458Z,3.00
2022-09-24T04:18:36.938Z,2.90
2022-09-24T04:21:06.109Z,2.90
2022-09-24T04:23:33.502Z,2.90
2022-09-24T04:26:02.507Z,3.00
2022-09-24T04:28:31.055Z,3.10
2022-09-24T04:30:59.489Z,3.10
2022-09-24T04:33:27.071Z,3.10
2022-09-24T04:35:54.612Z,3.00
2022-09-24T04:38:22.039Z,3.00
2022-09-24T04:40:49.856Z,3.00
2022-09-24T04:43:18.801Z,3.00
2022-09-24T04:45:46.675Z,3.00
2022-09-24T04:48:14.514Z,3.00
2022-09-24T04:50:45.862Z,3.10
2022-09-24T04:53:13.888Z,3.10
2022-09-24T04:55:42.032Z,3.10
2022-09-24T04:58:09.656Z,3.10
2022-09-24T05:00:37.089Z,3.20
2022-09-24T05:03:05.110Z,3.20
2022-09-24T05:05:33.978Z,3.30
2022-09-24T05:08:01.900Z,3.30
2022-09-24T05:10:30.378Z,3.50
2022-09-24T05:12:57.988Z,3.60
2022-09-24T05:15:25.274Z,3.70
2022-09-24T05:17:52.623Z,3.80
2022-09-24T05:20:20.013Z,3.90
2022-09-24T05:22:49.781Z,4.00
2022-09-24T05:25:18.793Z,4.10
2022-09-24T05:27:52.076Z,4.20
2022-09-24T05:30:21.057Z,4.30
2022-09-24T05:32:52.288Z,4.40
2022-09-24T05:35:24.180Z,4.40
2022-09-24T05:37:53.948Z,4.50
2022-09-24T05:40:40.900Z,4.60
2022-09-24T05:43:08.450Z,4.70
2022-09-24T05:45:35.791Z,4.80
2022-09-24T05:48:03.256Z,4.90
2022-09-24T05:50:31.262Z,5.00
2022-09-24T05:52:58.869Z,5.10
2022-09-24T05:55:31.454Z,5.20
2022-09-24T05:58:04.428Z,5.30
2022-09-24T06:00:31.955Z,5.30
2022-09-24T06:03:08.254Z,5.40
2022-09-24T06:05:35.907Z,5.40
2022-09-24T06:08:04.772Z,5.50
2022-09-24T06:10:32.943Z,5.60
2022-09-24T06:13:00.218Z,5.70
2022-09-24T06:15:27.672Z,5.90
2022-09-24T06:17:55.622Z,5.90
2022-09-24T06:20:23.807Z,6.00
2022-09-24T06:22:51.101Z,6.00
2022-09-24T06:25:18.382Z,6.10
2022-09-24T06:27:45.660Z,6.20
2022-09-24T06:30:13.281Z,6.30
2022-09-24T06:32:40.648Z,6.40
2022-09-24T06:35:08.241Z,6.40
2022-09-24T06:37:35.519Z,6.50
2022-09-24T06:40:03.026Z,6.60
2022-09-24T06:42:31.217Z,6.70
2022-09-24T06:44:58.582Z,6.80
2022-09-24T06:47:26.861Z,7.00
2022-09-24T06:49:54.118Z,7.20
2022-09-24T06:52:21.582Z,7.40
2022-09-24T06:54:48.828Z,7.50
2022-09-24T06:57:16.379Z,7.70
2022-09-24T06:59:43.701Z,7.90
2022-09-24T07:02:11.003Z,8.00
2022-09-24T07:04:38.378Z,8.10
2022-09-24T07:07:24.928Z,8.20
2022-09-24T07:09:52.267Z,8.30
2022-09-24T07:12:20.010Z,8.50
2022-09-24T07:14:47.351Z,8.50
2022-09-24T07:17:14.922Z,8.60
2022-09-24T07:19:42.621Z,8.80
2022-09-24T07:22:09.982Z,8.90
2022-09-24T07:24:37.260Z,9.00
2022-09-24T07:27:05.965Z,9.10
2022-09-24T07:29:33.691Z,9.20
2022-09-24T07:32:01.363Z,9.30
2022-09-24T07:34:28.657Z,9.40
2022-09-24T07:36:56.772Z,9.60
2022-09-24T07:39:27.486Z,9.60
2022-09-24T07:41:54.882Z,9.70
2022-09-24T07:44:25.498Z,9.80
2022-09-24T07:46:53.183Z,10.00
2022-09-24T07:49:20.583Z,10.00
2022-09-24T07:51:48.168Z,10.10
2022-09-24T07:54:17.321Z,10.20
2022-09-24T07:56:44.864Z,10.30
2022-09-24T07:59:12.546Z,10.30
2022-09-24T08:01:41.085Z,10.40
2022-09-24T08:04:08.752Z,10.40
2022-09-24T08:06:39.531Z,10.40
2022-09-24T08:09:08.308Z,10.50
2022-09-24T08:11:36.042Z,10.50
2022-09-24T08:14:03.449Z,10.60
2022-09-24T08:16:30.894Z,10.70
2022-09-24T08:18:58.318Z,10.80
2022-09-24T08:21:25.763Z,10.90
2022-09-24T08:23:53.096Z,11.10
2022-09-24T08:26:20.481Z,11.20
2022-09-24T08:28:51.429Z,11.40
2022-09-24T08:31:19.530Z,11.50
2022-09-24T08:33:50.965Z,11.70
2022-09-24T08:36:21.377Z,11.80
2022-09-24T08:38:48.727Z,11.90
2022-09-24T08:41:50.481Z,12.00
2022-09-24T08:44:59.965Z,12.10
2022-09-24T08:47:57.536Z,12.20
2022-09-24T08:50:25.961Z,12.40
2022-09-24T08:53:16.721Z,12.50
2022-09-24T08:55:48.977Z,12.70
2022-09-24T08:58:47.477Z,12.90
2022-09-24T09:01:26.671Z,13.10
2022-09-24T09:04:05.282Z,13.50
2022-09-24T09:06:47.801Z,13.80
2022-09-24T09:09:25.602Z,13.90
2022-09-24T09:12:03.441Z,14.10
2022-09-24T09:14:45.197Z,14.40
2022-09-24T09:17:29.817Z,14.20
2022-09-24T09:19:59.503Z,14.20
2022-09-24T09:22:31.320Z,13.40
2022-09-24T09:25:04.706Z,12.90
2022-09-24T09:27:32.197Z,12.40
2022-09-24T09:30:04.406Z,12.00
2022-09-24T09:32:31.852Z,11.80
2022-09-24T09:35:19.909Z,11.80
2022-09-24T09:37:57.952Z,12.70
2022-09-24T09:40:41.818Z,14.00
2022-09-24T09:43:12.062Z,15.10
2022-09-24T09:46:12.103Z,16.10
2022-09-24T09:48:48.167Z,17.10
2022-09-24T09:51:22.834Z,17.80
2022-09-24T09:53:59.505Z,18.10
2022-09-24T09:56:42.421Z,18.20
2022-09-24T09:59:19.617Z,18.80
2022-09-24T10:01:50.241Z,19.30
2022-09-24T10:04:44.215Z,19.40
2022-09-24T10:07:14.013Z,19.50
2022-09-24T10:09:43.217Z,19.60
2022-09-24T10:12:16.516Z,20.20
2022-09-24T10:14:44.090Z,20.00
2022-09-24T10:17:18.671Z,20.10
2022-09-24T10:19:51.097Z,20.30
2022-09-24T10:22:26.156Z,20.80
2022-09-24T10:24:56.335Z,21.30
2022-09-24T10:27:30.304Z,21.40
2022-09-24T10:30:16.951Z,21.50
2022-09-24T10:32:44.762Z,21.20
2022-09-24T10:35:23.303Z,21.70
2022-09-24T10:37:58.556Z,22.60
2022-09-24T10:40:31.444Z,21.50
2022-09-24T10:43:04.015Z,21.20
2022-09-24T10:45:58.718Z,21.70
2022-09-24T10:48:30.555Z,21.70
2022-09-24T10:51:25.308Z,21.80
2022-09-24T10:54:10.903Z,21.70
2022-09-24T10:56:46.665Z,22.50
2022-09-24T10:59:26.593Z,22.00
2022-09-24T11:02:25.595Z,21.00
2022-09-24T11:04:52.889Z,19.60
2022-09-24T11:07:23.233Z,18.60
2022-09-24T11:10:16.593Z,17.80
2022-09-24T11:12:54.393Z,17.10
2022-09-24T11:15:45.722Z,16.70
2022-09-24T11:18:38.296Z,16.20
2022-09-24T11:21:49.626Z,16.10
2022-09-24T11:24:35.592Z,17.90
2022-09-24T11:27:14.339Z,20.20
2022-09-24T11:30:02.084Z,21.60
2022-09-24T11:32:41.633Z,22.70
2022-09-24T11:35:28.540Z,23.80
2022-09-24T11:38:08.157Z,24.20
2022-09-24T11:40:41.667Z,22.90
2022-09-24T11:43:34.198Z,21.60
2022-09-24T11:46:32.287Z,20.60
2022-09-24T11:49:21.902Z,19.00
2022-09-24T11:52:06.074Z,18.40
2022-09-24T11:54:42.111Z,18.20
2022-09-24T11:57:19.011Z,17.90
2022-09-24T12:00:20.560Z,18.10
2022-09-24T12:03:01.088Z,20.10
2022-09-24T12:05:56.517Z,22.30
2022-09-24T12:08:38.451Z,21.80
2022-09-24T12:11:50.916Z,22.90
2022-09-24T12:14:28.511Z,24.80
2022-09-24T12:17:03.464Z,25.40
2022-09-24T12:19:59.626Z,24.80
2022-09-24T12:22:28.716Z,22.70
2022-09-24T12:25:00.635Z,20.80
2022-09-24T12:27:36.080Z,21.70
2022-09-24T12:30:52.769Z,22.80
2022-09-24T12:33:28.239Z,23.60
2022-09-24T12:36:18.589Z,24.40
2022-09-24T12:38:48.242Z,25.60
2022-09-24T12:41:24.700Z,25.10
2022-09-24T12:43:58.835Z,24.30
2022-09-24T12:46:54.089Z,24.50
2022-09-24T12:49:27.640Z,25.20
2022-09-24T12:52:15.984Z,26.20
2022-09-24T12:54:45.044Z,27.00
2022-09-24T12:57:22.725Z,25.90
2022-09-24T12:59:54.115Z,25.20
2022-09-24T13:02:27.853Z,26.20
2022-09-24T13:05:22.681Z,27.00
2022-09-24T13:08:17.289Z,27.40
2022-09-24T13:10:55.603Z,26.40
2022-09-24T13:13:29.235Z,26.60
2022-09-24T13:16:15.393Z,27.60
2022-09-24T13:18:44.421Z,28.10
2022-09-24T13:21:30.755Z,24.70
2022-09-24T13:23:58.820Z,22.60
2022-09-24T13:26:34.137Z,20.80
2022-09-24T13:29:06.797Z,22.10
2022-09-24T13:31:45.910Z,23.60
2022-09-24T13:34:28.779Z,24.40
2022-09-24T13:37:11.710Z,25.10
2022-09-24T13:39:58.077Z,25.20
2022-09-24T13:42:43.493Z,23.30
2022-09-24T13:45:19.153Z,22.30
2022-09-24T13:47:48.174Z,21.50
2022-09-24T13:50:21.344Z,22.30
2022-09-24T13:52:48.371Z,23.40
2022-09-24T13:55:33.497Z,25.40
2022-09-24T13:58:01.077Z,26.50
2022-09-24T14:00:30.290Z,26.80
2022-09-24T14:03:17.630Z,27.00
2022-09-24T14:05:45.331Z,25.60
2022-09-24T14:08:15.575Z,25.80
2022-09-24T14:10:43.530Z,25.70
2022-09-24T14:13:25.536Z,25.40
2022-09-24T14:16:00.065Z,25.80
2022-09-24T14:18:29.069Z,26.30
2022-09-24T14:21:01.444Z,25.50
2022-09-24T14:23:33.963Z,24.90
2022-09-24T14:26:02.165Z,24.30
2022-09-24T14:28:33.072Z,24.70
2022-09-24T14:31:01.911Z,25.40
2022-09-24T14:33:34.498Z,26.00
2022-09-24T14:36:03.871Z,27.00
2022-09-24T14:38:36.093Z,26.20
2022-09-24T14:41:14.255Z,24.90
2022-09-24T14:44:23.713Z,24.30
2022-09-24T14:46:58.415Z,24.70
2022-09-24T14:49:44.113Z,24.60
2022-09-24T14:52:55.415Z,23.50
2022-09-24T14:55:35.833Z,23.10
2022-09-24T14:58:03.194Z,22.70
2022-09-24T15:00:37.791Z,21.40
2022-09-24T15:03:11.842Z,20.10
2022-09-24T15:05:40.150Z,18.70
2022-09-24T15:08:22.598Z,18.00
2022-09-24T15:11:02.282Z,17.20
2022-09-24T15:13:34.705Z,16.60
2022-09-24T15:16:04.558Z,16.20
2022-09-24T15:18:32.562Z,15.80
2022-09-24T15:21:00.390Z,15.70
2022-09-24T15:23:27.741Z,15.70
2022-09-24T15:25:55.147Z,15.60
2022-09-24T15:28:27.374Z,15.70
2022-09-24T15:30:54.828Z,15.80
2022-09-24T15:33:22.236Z,16.10
2022-09-24T15:35:49.700Z,16.70
2022-09-24T15:38:18.997Z,17.50
2022-09-24T15:40:47.234Z,18.50
2022-09-24T15:43:25.212Z,19.50
2022-09-24T15:45:52.737Z,19.70
2022-09-24T15:48:20.057Z,20.10
2022-09-24T15:50:48.134Z,19.50
2022-09-24T15:53:22.310Z,18.40
2022-09-24T15:55:53.310Z,17.40
2022-09-24T15:58:20.815Z,16.70
2022-09-24T16:00:48.857Z,16.20
2022-09-24T16:03:31.052Z,15.80
2022-09-24T16:06:00.313Z,15.40
2022-09-24T16:08:27.931Z,15.10
2022-09-24T16:10:55.351Z,14.90
2022-09-24T16:13:23.504Z,14.80
2022-09-24T16:15:50.965Z,14.60
2022-09-24T16:18:18.630Z,14.40
2022-09-24T16:20:47.550Z,14.30
2022-09-24T16:23:18.715Z,14.20
2022-09-24T16:26:00.053Z,14.10
2022-09-24T16:28:28.834Z,14.00
2022-09-24T16:30:56.673Z,13.90
2022-09-24T16:33:25.090Z,13.90
2022-09-24T16:35:52.414Z,13.80
2022-09-24T16:38:22.898Z,13.70
2022-09-24T16:40:52.294Z,13.60
2022-09-24T16:43:19.738Z,13.60
2022-09-24T16:45:47.061Z,13.60
2022-09-24T16:48:14.417Z,13.50
2022-09-24T16:50:41.873Z,13.50
2022-09-24T16:53:09.161Z,13.50
2022-09-24T16:55:36.632Z,13.40
2022-09-24T16:58:03.903Z,13.40
2022-09-24T17:00:31.139Z,13.40
2022-09-24T17:02:59.984Z,13.30
2022-09-24T17:05:27.438Z,13.20
2022-09-24T17:07:54.762Z,13.20
2022-09-24T17:10:24.397Z,13.20
2022-09-24T17:12:51.967Z,13.00
2022-09-24T17:15:20.922Z,13.00
2022-09-24T17:17:50.763Z,12.80
2022-09-24T17:20:19.599Z,12.80
2022-09-24T17:22:48.757Z,12.80
2022-09-24T17:25:16.356Z,12.70
2022-09-24T17:27:45.128Z,12.60
2022-09-24T17:30:12.895Z,12.70
2022-09-24T17:32:40.225Z,12.70
2022-09-24T17:35:08.242Z,12.60
2022-09-24T17:37:36.232Z,12.50
2022-09-24T17:40:04.555Z,12.40
2022-09-24T17:42:33.539Z,12.40
2022-09-24T17:45:00.892Z,12.30
2022-09-24T17:47:48.134Z,12.10
2022-09-24T17:50:16.322Z,12.00
2022-09-24T17:52:43.659Z,11.90
2022-09-24T17:55:11.100Z,11.70
2022-09-24T17:57:38.440Z,11.50
2022-09-24T18:00:06.496Z,11.30
2022-09-24T18:02:33.858Z,11.30
2022-09-24T18:05:01.603Z,11.20
2022-09-24T18:07:29.838Z,11.10
2022-09-24T18:09:57.447Z,11.00
2022-09-24T18:12:24.843Z,10.90
2022-09-24T18:14:52.283Z,10.80
2022-09-24T18:17:19.641Z,10.70
2022-09-24T18:19:46.877Z,10.70
2022-09-24T18:22:14.397Z,10.60
2022-09-24T18:24:42.259Z,10.60
2022-09-24T18:27:09.617Z,10.40
2022-09-24T18:29:37.603Z,10.40
2022-09-24T18:32:05.759Z,10.30
2022-09-24T18:34:33.097Z,10.20
2022-09-24T18:37:00.410Z,10.10
2022-09-24T18:39:27.759Z,10.00
2022-09-24T18:41:55.142Z,9.90
2022-09-24T18:44:22.590Z,9.80
2022-09-24T18:46:50.174Z,9.70
2022-09-24T18:49:17.652Z,9.70
2022-09-24T18:51:45.225Z,9.70
2022-09-24T18:54:14.141Z,9.70
2022-09-24T18:56:41.918Z,9.60
2022-09-24T18:59:16.277Z,9.60
2022-09-24T19:01:44.671Z,9.50
2022-09-24T19:04:13.541Z,9.50
2022-09-24T19:06:43.499Z,9.50
2022-09-24T19:09:13.744Z,9.50
2022-09-24T19:11:42.267Z,9.40
2022-09-24T19:14:11.618Z,9.40
2022-09-24T19:16:40.097Z,9.40
2022-09-24T19:19:07.698Z,9.30
2022-09-24T19:21:34.955Z,9.40
2022-09-24T19:24:02.436Z,9.30
2022-09-24T19:26:32.082Z,9.20
2022-09-24T19:29:00.502Z,9.20
2022-09-24T19:31:32.251Z,9.10
2022-09-24T19:34:03.278Z,9.00
2022-09-24T19:36:33.903Z,9.10
2022-09-24T19:39:03.741Z,9.00
2022-09-24T19:41:31.010Z,9.00
2022-09-24T19:44:03.193Z,8.90
2022-09-24T19:46:38.995Z,8.80
2022-09-24T19:49:07.347Z,8.80
2022-09-24T19:51:36.504Z,8.80
2022-09-24T19:54:09.416Z,8.80
2022-09-24T19:56:37.423Z,8.70
2022-09-24T19:59:05.601Z,8.70
2022-09-24T20:01:34.190Z,8.60
2022-09-24T20:04:06.236Z,8.60
2022-09-24T20:06:35.261Z,8.50
2022-09-24T20:09:03.437Z,8.50
2022-09-24T20:11:33.083Z,8.50
2022-09-24T20:14:01.740Z,8.50
2022-09-24T20:16:31.242Z,8.40
2022-09-24T20:18:58.623Z,8.40
2022-09-24T20:21:28.237Z,8.50
2022-09-24T20:23:58.122Z,8.50
2022-09-24T20:26:44.731Z,8.60
2022-09-24T20:29:13.942Z,8.60
2022-09-24T20:31:51.282Z,8.50
2022-09-24T20:34:28.866Z,8.40
2022-09-24T20:36:58.679Z,8.30
2022-09-24T20:39:26.046Z,8.20
2022-09-24T20:41:53.418Z,8.20
2022-09-24T20:44:22.333Z,8.20
2022-09-24T20:46:49.670Z,8.10
2022-09-24T20:49:24.467Z,8.10
2022-09-24T20:51:57.506Z,8.00
2022-09-24T20:54:26.573Z,8.00
2022-09-24T20:56:53.940Z,7.90
2022-09-24T20:59:21.198Z,7.90
2022-09-24T21:01:49.704Z,7.80
2022-09-24T21:04:17.844Z,7.80
2022-09-24T21:06:45.125Z,7.70
2022-09-24T21:09:13.359Z,7.60
2022-09-24T21:11:42.161Z,7.60
2022-09-24T21:14:11.977Z,7.60
2022-09-24T21:16:39.546Z,7.50
2022-09-24T21:19:08.303Z,7.60
2022-09-24T21:21:38.581Z,7.50
2022-09-24T21:24:07.911Z,7.40
2022-09-24T21:26:37.389Z,7.40
2022-09-24T21:29:11.003Z,7.40
2022-09-24T21:31:39.815Z,7.30
2022-09-24T21:34:08.632Z,7.30
2022-09-24T21:36:44.050Z,7.20
2022-09-24T21:39:18.276Z,7.20
2022-09-24T21:41:50.169Z,7.20
2022-09-24T21:44:18.777Z,7.20
2022-09-24T21:46:46.454Z,7.20
2022-09-24T21:49:13.818Z,7.10
2022-09-24T21:51:42.165Z,7.10
2022-09-24T21:54:14.327Z,7.10
2022-09-24T21:56:41.670Z,7.00
2022-09-24T21:59:27.275Z,7.00
2022-09-24T22:01:55.754Z,7.10
2022-09-24T22:04:23.520Z,7.10
2022-09-24T22:06:51.289Z,7.10
2022-09-24T22:09:19.026Z,7.00
2022-09-24T22:11:47.085Z,7.00
2022-09-24T22:14:14.736Z,7.00
2022-09-24T22:16:42.276Z,6.90
2022-09-24T22:19:09.982Z,6.90
2022-09-24T22:21:37.735Z,6.90
2022-09-24T22:24:05.632Z,6.80
2022-09-24T22:26:33.569Z,6.80
2022-09-24T22:29:01.406Z,6.70
2022-09-24T22:31:28.798Z,6.70
2022-09-24T22:34:14.387Z,6.70
2022-09-24T22:36:41.843Z,6.60
2022-09-24T22:39:09.578Z,6.70
2022-09-24T22:41:40.197Z,6.70
2022-09-24T22:44:07.847Z,6.80
2022-09-24T22:46:36.522Z,6.80
2022-09-24T22:49:05.105Z,6.70
2022-09-24T22:51:33.965Z,6.60
2022-09-24T22:54:01.474Z,6.60
2022-09-24T22:56:30.283Z,6.60
2022-09-24T22:59:00.329Z,6.70
2022-09-24T23:01:29.123Z,6.70
2022-09-24T23:03:57.481Z,6.70
2022-09-24T23:06:25.417Z,6.50
2022-09-24T23:08:54.123Z,6.60
2022-09-24T23:11:26.818Z,6.60
2022-09-24T23:13:57.423Z,6.50
2022-09-24T23:16:28.160Z,6.40
2022-09-24T23:18:58.427Z,6.20
2022-09-24T23:21:27.638Z,6.10
2022-09-24T23:23:58.093Z,6.00
2022-09-24T23:26:26.646Z,6.10
2022-09-24T23:28:55.225Z,6.10
2022-09-24T23:31:25.979Z,6.00
2022-09-24T23:33:55.402Z,6.00
2022-09-24T23:36:22.828Z,6.00
2022-09-24T23:38:50.355Z,6.00
2022-09-24T23:41:17.667Z,6.20
2022-09-24T23:43:45.987Z,6.30
2022-09-24T23:46:14.353Z,6.50
2022-09-24T23:48:42.357Z,6.50
2022-09-24T23:51:11.035Z,6.50
2022-09-24T23:53:38.756Z,6.50
2022-09-24T23:56:07.554Z,6.50
2022-09-24T23:58:35.560Z,6.50
